sensor_id;sensor_type;location;lat;lon;timestamp;pressure;altitude;pressure_sealevel;temperature;humidity
68320;BME280;55168;51.120;17.024;2023-05-16T00:00:00;99460;;;9.8;100.0
68320;BME280;55168;51.120;17.024;2023-05-16T00:01:00;99460;;;9.7;100.0
68320;BME280;55168;51.120;17.024;2023-05-16T00:02:00;99460;;;9.7;100.0
68320;BME280;55168;51.120;17.024;2023-05-16T00:03:00;99460;;;9.7;100.0
68320;BME280;55168;51.120;17.024;2023-05-16T00:04:00;99460;;;9.6;100.0
68320;BME280;55168;51.120;17.024;2023-05-16T00:05:00;99460;;;9.6;100.0
68320;BME280;55168;51.120;17.024;2023-05-16T00:06:00;99470;;;9.6;100.0
68320;BME280;55168;51.120;17.024;2023-05-16T00:07:00;99470;;;9.6;100.0
68320;BME280;55168;51.120;17.024;2023-05-16T00:08:00;99470;;;9.6;100.0
68320;BME280;55168;51.120;17.024;2023-05-16T00:09:00;99470;;;9.6;100.0
68320;BME280;55168;51.120;17.024;2023-05-16T00:10:00;99460;;;9.5;100.0
68320;BME280;55168;51.120;17.024;2023-05-16T00:11:00;99460;;;9.5;100.0
68320;BME280;55168;51.120;17.024;2023-05-16T00:12:00;99460;;;9.5;100.0
68320;BME280;55168;51.120;17.024;2023-05-16T00:13:00;99460;;;9.5;100.0
68320;BME280;55168;51.120;17.024;2023-05-16T00:14:00;99460;;;9.5;100.0
68320;BME280;55168;51.120;17.024;2023-05-16T00:15:00;99460;;;9.5;100.0
68320;BME280;55168;51.120;17.024;2023-05-16T00:16:00;99460;;;9.6;100.0
68320;BME280;55168;51.120;17.024;2023-05-16T00:17:00;99460;;;9.5;100.0
68320;BME280;55168;51.120;17.024;2023-05-16T00:18:00;99460;;;9.5;100.0
68320;BME280;55168;51.120;17.024;2023-05-16T00:19:00;99470;;;9.5;100.0
68320;BME280;55168;51.120;17.024;2023-05-16T00:20:01;99470;;;9.5;100.0
68320;BME280;55168;51.120;17.024;2023-05-16T00:21:00;99470;;;9.4;100.0
68320;BME280;55168;51.120;17.024;2023-05-16T00:22:00;99470;;;9.4;100.0
68320;BME280;55168;51.120;17.024;2023-05-16T00:23:00;99470;;;9.4;100.0
68320;BME280;55168;51.120;17.024;2023-05-16T00:24:00;99470;;;9.4;100.0
68320;BME280;55168;51.120;17.024;2023-05-16T00:25:00;99470;;;9.4;100.0
68320;BME280;55168;51.120;17.024;2023-05-16T00:26:00;99480;;;9.4;100.0
68320;BME280;55168;51.120;17.024;2023-05-16T00:27:00;99470;;;9.4;100.0
68320;BME280;55168;51.120;17.024;2023-05-16T00:28:00;99470;;;9.4;100.0
68320;BME280;55168;51.120;17.024;2023-05-16T00:29:00;99470;;;9.4;100.0
68320;BME280;55168;51.120;17.024;2023-05-16T00:30:00;99470;;;9.4;100.0
68320;BME280;55168;51.120;17.024;2023-05-16T00:31:00;99480;;;9.4;100.0
68320;BME280;55168;51.120;17.024;2023-05-16T00:32:00;99470;;;9.4;100.0
68320;BME280;55168;51.120;17.024;2023-05-16T00:33:00;99470;;;9.4;100.0
68320;BME280;55168;51.120;17.024;2023-05-16T00:34:00;99480;;;9.4;100.0
68320;BME280;55168;51.120;17.024;2023-05-16T00:35:00;99480;;;9.4;100.0
68320;BME280;55168;51.120;17.024;2023-05-16T00:36:00;99470;;;9.5;100.0
68320;BME280;55168;51.120;17.024;2023-05-16T00:37:00;99480;;;9.4;100.0
68320;BME280;55168;51.120;17.024;2023-05-16T00:38:00;99480;;;9.4;100.0
68320;BME280;55168;51.120;17.024;2023-05-16T00:39:00;99470;;;9.4;100.0
68320;BME280;55168;51.120;17.024;2023-05-16T00:40:00;99480;;;9.5;100.0
68320;BME280;55168;51.120;17.024;2023-05-16T00:41:00;99480;;;9.5;100.0
68320;BME280;55168;51.120;17.024;2023-05-16T00:42:00;99480;;;9.5;100.0
68320;BME280;55168;51.120;17.024;2023-05-16T00:43:00;99480;;;9.4;100.0
68320;BME280;55168;51.120;17.024;2023-05-16T00:44:00;99480;;;9.4;100.0
68320;BME280;55168;51.120;17.024;2023-05-16T00:45:00;99480;;;9.4;100.0
68320;BME280;55168;51.120;17.024;2023-05-16T00:46:00;99480;;;9.5;100.0
68320;BME280;55168;51.120;17.024;2023-05-16T00:47:00;99480;;;9.5;100.0
68320;BME280;55168;51.120;17.024;2023-05-16T00:48:00;99480;;;9.5;100.0
68320;BME280;55168;51.120;17.024;2023-05-16T00:49:00;99480;;;9.5;100.0
68320;BME280;55168;51.120;17.024;2023-05-16T00:50:00;99480;;;9.5;100.0
68320;BME280;55168;51.120;17.024;2023-05-16T00:51:00;99480;;;9.5;100.0
68320;BME280;55168;51.120;17.024;2023-05-16T00:52:00;99490;;;9.5;100.0
68320;BME280;55168;51.120;17.024;2023-05-16T00:53:00;99490;;;9.5;100.0
68320;BME280;55168;51.120;17.024;2023-05-16T00:54:00;99490;;;9.5;100.0
68320;BME280;55168;51.120;17.024;2023-05-16T00:55:01;99490;;;9.5;100.0
68320;BME280;55168;51.120;17.024;2023-05-16T00:56:00;99490;;;9.5;100.0
68320;BME280;55168;51.120;17.024;2023-05-16T00:57:00;99490;;;9.5;100.0
68320;BME280;55168;51.120;17.024;2023-05-16T00:58:00;99490;;;9.5;100.0
68320;BME280;55168;51.120;17.024;2023-05-16T00:59:00;99490;;;9.5;100.0
68320;BME280;55168;51.120;17.024;2023-05-16T01:00:00;99490;;;9.5;100.0
68320;BME280;55168;51.120;17.024;2023-05-16T01:01:00;99480;;;9.5;100.0
68320;BME280;55168;51.120;17.024;2023-05-16T01:02:00;99480;;;9.5;100.0
68320;BME280;55168;51.120;17.024;2023-05-16T01:03:00;99480;;;9.5;100.0
68320;BME280;55168;51.120;17.024;2023-05-16T01:04:00;99480;;;9.4;100.0
68320;BME280;55168;51.120;17.024;2023-05-16T01:05:00;99480;;;9.4;100.0
68320;BME280;55168;51.120;17.024;2023-05-16T01:06:00;99490;;;9.4;100.0
68320;BME280;55168;51.120;17.024;2023-05-16T01:07:00;99480;;;9.4;100.0
68320;BME280;55168;51.120;17.024;2023-05-16T01:08:00;99480;;;9.4;100.0
68320;BME280;55168;51.120;17.024;2023-05-16T01:09:00;99480;;;9.3;100.0
68320;BME280;55168;51.120;17.024;2023-05-16T01:10:01;99480;;;9.3;100.0
68320;BME280;55168;51.120;17.024;2023-05-16T01:11:02;99480;;;9.3;100.0
68320;BME280;55168;51.120;17.024;2023-05-16T01:13:06;99480;;;9.3;100.0
68320;BME280;55168;51.120;17.024;2023-05-16T01:15:05;99490;;;9.3;100.0
68320;BME280;55168;51.120;17.024;2023-05-16T01:16:03;99490;;;9.4;100.0
68320;BME280;55168;51.120;17.024;2023-05-16T01:17:11;99490;;;9.4;100.0
68320;BME280;55168;51.120;17.024;2023-05-16T01:18:02;99490;;;9.3;100.0
68320;BME280;55168;51.120;17.024;2023-05-16T01:19:05;99490;;;9.3;100.0
68320;BME280;55168;51.120;17.024;2023-05-16T01:20:02;99490;;;9.4;100.0
68320;BME280;55168;51.120;17.024;2023-05-16T01:21:01;99490;;;9.4;100.0
68320;BME280;55168;51.120;17.024;2023-05-16T01:22:02;99500;;;9.4;100.0
68320;BME280;55168;51.120;17.024;2023-05-16T01:23:04;99500;;;9.4;100.0
68320;BME280;55168;51.120;17.024;2023-05-16T01:24:12;99500;;;9.4;100.0
68320;BME280;55168;51.120;17.024;2023-05-16T01:27:00;99510;;;9.5;100.0
68320;BME280;55168;51.120;17.024;2023-05-16T01:28:00;99500;;;9.5;100.0
68320;BME280;55168;51.120;17.024;2023-05-16T01:29:00;99500;;;9.5;100.0
68320;BME280;55168;51.120;17.024;2023-05-16T01:30:00;99500;;;9.5;100.0
68320;BME280;55168;51.120;17.024;2023-05-16T01:31:00;99500;;;9.5;100.0
68320;BME280;55168;51.120;17.024;2023-05-16T01:32:00;99500;;;9.5;100.0
68320;BME280;55168;51.120;17.024;2023-05-16T01:33:00;99500;;;9.5;100.0
68320;BME280;55168;51.120;17.024;2023-05-16T01:34:00;99500;;;9.4;100.0
68320;BME280;55168;51.120;17.024;2023-05-16T01:35:00;99500;;;9.4;100.0
68320;BME280;55168;51.120;17.024;2023-05-16T01:37:18;99500;;;9.4;100.0
68320;BME280;55168;51.120;17.024;2023-05-16T01:38:17;99500;;;9.4;100.0
68320;BME280;55168;51.120;17.024;2023-05-16T01:39:05;99510;;;9.4;100.0
68320;BME280;55168;51.120;17.024;2023-05-16T01:40:04;99510;;;9.4;100.0
68320;BME280;55168;51.120;17.024;2023-05-16T01:41:03;99510;;;9.4;100.0
68320;BME280;55168;51.120;17.024;2023-05-16T01:42:04;99510;;;9.4;100.0
68320;BME280;55168;51.120;17.024;2023-05-16T01:43:00;99510;;;9.4;100.0
68320;BME280;55168;51.120;17.024;2023-05-16T01:44:01;99510;;;9.4;100.0
68320;BME280;55168;51.120;17.024;2023-05-16T01:45:03;99520;;;9.4;100.0
68320;BME280;55168;51.120;17.024;2023-05-16T01:46:02;99510;;;9.4;100.0
68320;BME280;55168;51.120;17.024;2023-05-16T01:47:01;99520;;;9.4;100.0
68320;BME280;55168;51.120;17.024;2023-05-16T01:48:09;99520;;;9.4;100.0
68320;BME280;55168;51.120;17.024;2023-05-16T01:50:03;99520;;;9.4;100.0
68320;BME280;55168;51.120;17.024;2023-05-16T01:51:00;99520;;;9.4;100.0
68320;BME280;55168;51.120;17.024;2023-05-16T01:52:01;99520;;;9.4;100.0
68320;BME280;55168;51.120;17.024;2023-05-16T01:53:02;99520;;;9.5;100.0
68320;BME280;55168;51.120;17.024;2023-05-16T01:54:04;99520;;;9.4;100.0
68320;BME280;55168;51.120;17.024;2023-05-16T01:55:00;99530;;;9.4;100.0
68320;BME280;55168;51.120;17.024;2023-05-16T01:56:00;99530;;;9.4;100.0
68320;BME280;55168;51.120;17.024;2023-05-16T01:57:00;99520;;;9.4;100.0
68320;BME280;55168;51.120;17.024;2023-05-16T01:58:02;99530;;;9.4;100.0
68320;BME280;55168;51.120;17.024;2023-05-16T01:59:00;99530;;;9.4;100.0
68320;BME280;55168;51.120;17.024;2023-05-16T02:00:00;99530;;;9.4;100.0
68320;BME280;55168;51.120;17.024;2023-05-16T02:01:01;99530;;;9.4;100.0
68320;BME280;55168;51.120;17.024;2023-05-16T02:02:01;99530;;;9.4;100.0
68320;BME280;55168;51.120;17.024;2023-05-16T02:03:00;99530;;;9.4;100.0
68320;BME280;55168;51.120;17.024;2023-05-16T02:04:00;99530;;;9.4;100.0
68320;BME280;55168;51.120;17.024;2023-05-16T02:05:00;99530;;;9.4;100.0
68320;BME280;55168;51.120;17.024;2023-05-16T02:06:00;99530;;;9.5;100.0
68320;BME280;55168;51.120;17.024;2023-05-16T02:07:00;99530;;;9.6;100.0
68320;BME280;55168;51.120;17.024;2023-05-16T02:08:00;99540;;;9.6;100.0
68320;BME280;55168;51.120;17.024;2023-05-16T02:09:00;99540;;;9.6;100.0
68320;BME280;55168;51.120;17.024;2023-05-16T02:10:00;99540;;;9.6;100.0
68320;BME280;55168;51.120;17.024;2023-05-16T02:11:00;99540;;;9.6;100.0
68320;BME280;55168;51.120;17.024;2023-05-16T02:12:00;99540;;;9.6;100.0
68320;BME280;55168;51.120;17.024;2023-05-16T02:13:00;99540;;;9.6;100.0
68320;BME280;55168;51.120;17.024;2023-05-16T02:14:00;99540;;;9.6;100.0
68320;BME280;55168;51.120;17.024;2023-05-16T02:15:00;99550;;;9.6;100.0
68320;BME280;55168;51.120;17.024;2023-05-16T02:16:00;99550;;;9.6;100.0
68320;BME280;55168;51.120;17.024;2023-05-16T02:17:00;99550;;;9.5;100.0
68320;BME280;55168;51.120;17.024;2023-05-16T02:18:00;99550;;;9.5;100.0
68320;BME280;55168;51.120;17.024;2023-05-16T02:19:00;99550;;;9.4;100.0
68320;BME280;55168;51.120;17.024;2023-05-16T02:20:00;99550;;;9.4;100.0
68320;BME280;55168;51.120;17.024;2023-05-16T02:21:00;99550;;;9.4;100.0
68320;BME280;55168;51.120;17.024;2023-05-16T02:22:00;99550;;;9.4;100.0
68320;BME280;55168;51.120;17.024;2023-05-16T02:23:00;99550;;;9.3;100.0
68320;BME280;55168;51.120;17.024;2023-05-16T02:24:00;99540;;;9.3;100.0
68320;BME280;55168;51.120;17.024;2023-05-16T02:25:00;99540;;;9.3;100.0
68320;BME280;55168;51.120;17.024;2023-05-16T02:26:00;99550;;;9.3;100.0
68320;BME280;55168;51.120;17.024;2023-05-16T02:27:00;99540;;;9.3;100.0
68320;BME280;55168;51.120;17.024;2023-05-16T02:28:00;99540;;;9.3;100.0
68320;BME280;55168;51.120;17.024;2023-05-16T02:29:00;99540;;;9.2;100.0
68320;BME280;55168;51.120;17.024;2023-05-16T02:30:00;99550;;;9.2;100.0
68320;BME280;55168;51.120;17.024;2023-05-16T02:31:00;99540;;;9.1;100.0
68320;BME280;55168;51.120;17.024;2023-05-16T02:32:00;99540;;;9.1;100.0
68320;BME280;55168;51.120;17.024;2023-05-16T02:33:00;99540;;;9.1;100.0
68320;BME280;55168;51.120;17.024;2023-05-16T02:34:00;99540;;;9.2;100.0
68320;BME280;55168;51.120;17.024;2023-05-16T02:35:00;99540;;;9.1;100.0
68320;BME280;55168;51.120;17.024;2023-05-16T02:36:00;99540;;;9.1;100.0
68320;BME280;55168;51.120;17.024;2023-05-16T02:37:00;99540;;;9.1;100.0
68320;BME280;55168;51.120;17.024;2023-05-16T02:38:00;99530;;;9.1;100.0
68320;BME280;55168;51.120;17.024;2023-05-16T02:39:00;99540;;;9.1;100.0
68320;BME280;55168;51.120;17.024;2023-05-16T02:40:00;99540;;;9.1;100.0
68320;BME280;55168;51.120;17.024;2023-05-16T02:41:00;99540;;;9.1;100.0
68320;BME280;55168;51.120;17.024;2023-05-16T02:42:00;99540;;;9.1;100.0
68320;BME280;55168;51.120;17.024;2023-05-16T02:43:00;99540;;;9.1;100.0
68320;BME280;55168;51.120;17.024;2023-05-16T02:44:00;99540;;;9.0;100.0
68320;BME280;55168;51.120;17.024;2023-05-16T02:45:00;99540;;;9.1;100.0
68320;BME280;55168;51.120;17.024;2023-05-16T02:46:03;99540;;;9.1;100.0
68320;BME280;55168;51.120;17.024;2023-05-16T02:47:00;99550;;;9.1;100.0
68320;BME280;55168;51.120;17.024;2023-05-16T02:48:00;99550;;;9.1;100.0
68320;BME280;55168;51.120;17.024;2023-05-16T02:49:00;99550;;;9.1;100.0
68320;BME280;55168;51.120;17.024;2023-05-16T02:50:01;99550;;;9.2;100.0
68320;BME280;55168;51.120;17.024;2023-05-16T02:51:00;99560;;;9.2;100.0
68320;BME280;55168;51.120;17.024;2023-05-16T02:52:00;99560;;;9.2;100.0
68320;BME280;55168;51.120;17.024;2023-05-16T02:53:00;99560;;;9.3;100.0
68320;BME280;55168;51.120;17.024;2023-05-16T02:54:00;99560;;;9.2;100.0
68320;BME280;55168;51.120;17.024;2023-05-16T02:55:00;99560;;;9.2;100.0
68320;BME280;55168;51.120;17.024;2023-05-16T02:56:00;99560;;;9.2;100.0
68320;BME280;55168;51.120;17.024;2023-05-16T02:57:00;99560;;;9.2;100.0
68320;BME280;55168;51.120;17.024;2023-05-16T02:58:00;99560;;;9.2;100.0
68320;BME280;55168;51.120;17.024;2023-05-16T02:59:00;99560;;;9.2;100.0
68320;BME280;55168;51.120;17.024;2023-05-16T03:00:00;99550;;;9.2;100.0
68320;BME280;55168;51.120;17.024;2023-05-16T03:01:00;99550;;;9.1;100.0
68320;BME280;55168;51.120;17.024;2023-05-16T03:02:00;99560;;;9.1;100.0
68320;BME280;55168;51.120;17.024;2023-05-16T03:03:00;99550;;;9.1;100.0
68320;BME280;55168;51.120;17.024;2023-05-16T03:04:00;99550;;;9.1;100.0
68320;BME280;55168;51.120;17.024;2023-05-16T03:05:00;99550;;;9.0;100.0
68320;BME280;55168;51.120;17.024;2023-05-16T03:06:00;99550;;;9.0;100.0
68320;BME280;55168;51.120;17.024;2023-05-16T03:07:00;99550;;;9.1;100.0
68320;BME280;55168;51.120;17.024;2023-05-16T03:08:00;99550;;;9.1;100.0
68320;BME280;55168;51.120;17.024;2023-05-16T03:09:00;99560;;;9.1;100.0
68320;BME280;55168;51.120;17.024;2023-05-16T03:10:00;99560;;;9.1;100.0
68320;BME280;55168;51.120;17.024;2023-05-16T03:11:00;99560;;;9.1;100.0
68320;BME280;55168;51.120;17.024;2023-05-16T03:12:00;99560;;;9.0;100.0
68320;BME280;55168;51.120;17.024;2023-05-16T03:13:00;99560;;;9.0;100.0
68320;BME280;55168;51.120;17.024;2023-05-16T03:14:00;99560;;;9.0;100.0
68320;BME280;55168;51.120;17.024;2023-05-16T03:15:00;99560;;;9.1;100.0
68320;BME280;55168;51.120;17.024;2023-05-16T03:16:00;99560;;;9.0;100.0
68320;BME280;55168;51.120;17.024;2023-05-16T03:17:00;99560;;;9.1;100.0
68320;BME280;55168;51.120;17.024;2023-05-16T03:18:00;99560;;;9.0;100.0
68320;BME280;55168;51.120;17.024;2023-05-16T03:19:00;99560;;;9.0;100.0
68320;BME280;55168;51.120;17.024;2023-05-16T03:20:00;99560;;;9.0;100.0
68320;BME280;55168;51.120;17.024;2023-05-16T03:21:00;99560;;;9.0;100.0
68320;BME280;55168;51.120;17.024;2023-05-16T03:22:00;99560;;;9.0;100.0
68320;BME280;55168;51.120;17.024;2023-05-16T03:23:00;99560;;;9.0;100.0
68320;BME280;55168;51.120;17.024;2023-05-16T03:24:02;99560;;;9.0;100.0
68320;BME280;55168;51.120;17.024;2023-05-16T03:25:00;99560;;;9.0;100.0
68320;BME280;55168;51.120;17.024;2023-05-16T03:26:00;99560;;;9.0;100.0
68320;BME280;55168;51.120;17.024;2023-05-16T03:27:00;99560;;;9.0;100.0
68320;BME280;55168;51.120;17.024;2023-05-16T03:28:00;99560;;;8.9;100.0
68320;BME280;55168;51.120;17.024;2023-05-16T03:29:00;99560;;;8.9;100.0
68320;BME280;55168;51.120;17.024;2023-05-16T03:30:00;99550;;;8.9;100.0
68320;BME280;55168;51.120;17.024;2023-05-16T03:31:00;99550;;;9.0;100.0
68320;BME280;55168;51.120;17.024;2023-05-16T03:32:00;99560;;;9.0;100.0
68320;BME280;55168;51.120;17.024;2023-05-16T03:33:00;99560;;;9.0;100.0
68320;BME280;55168;51.120;17.024;2023-05-16T03:34:00;99560;;;9.0;100.0
68320;BME280;55168;51.120;17.024;2023-05-16T03:35:00;99560;;;9.0;100.0
68320;BME280;55168;51.120;17.024;2023-05-16T03:36:00;99560;;;9.1;100.0
68320;BME280;55168;51.120;17.024;2023-05-16T03:37:00;99570;;;9.1;100.0
68320;BME280;55168;51.120;17.024;2023-05-16T03:38:00;99570;;;9.1;100.0
68320;BME280;55168;51.120;17.024;2023-05-16T03:39:00;99570;;;9.2;100.0
68320;BME280;55168;51.120;17.024;2023-05-16T03:40:00;99570;;;9.2;100.0
68320;BME280;55168;51.120;17.024;2023-05-16T03:41:00;99570;;;9.3;100.0
68320;BME280;55168;51.120;17.024;2023-05-16T03:42:00;99580;;;9.3;100.0
68320;BME280;55168;51.120;17.024;2023-05-16T03:43:00;99570;;;9.3;100.0
68320;BME280;55168;51.120;17.024;2023-05-16T03:44:00;99570;;;9.4;100.0
68320;BME280;55168;51.120;17.024;2023-05-16T03:45:00;99580;;;9.4;100.0
68320;BME280;55168;51.120;17.024;2023-05-16T03:46:00;99580;;;9.4;100.0
68320;BME280;55168;51.120;17.024;2023-05-16T03:47:00;99580;;;9.5;100.0
68320;BME280;55168;51.120;17.024;2023-05-16T03:48:00;99580;;;9.5;100.0
68320;BME280;55168;51.120;17.024;2023-05-16T03:49:00;99570;;;9.6;100.0
68320;BME280;55168;51.120;17.024;2023-05-16T03:50:00;99570;;;9.6;100.0
68320;BME280;55168;51.120;17.024;2023-05-16T03:51:00;99580;;;9.6;100.0
68320;BME280;55168;51.120;17.024;2023-05-16T03:52:00;99580;;;9.7;100.0
68320;BME280;55168;51.120;17.024;2023-05-16T03:53:00;99580;;;9.7;100.0
68320;BME280;55168;51.120;17.024;2023-05-16T03:54:00;99580;;;9.7;100.0
68320;BME280;55168;51.120;17.024;2023-05-16T03:55:00;99580;;;9.8;100.0
68320;BME280;55168;51.120;17.024;2023-05-16T03:56:00;99580;;;9.8;100.0
68320;BME280;55168;51.120;17.024;2023-05-16T03:57:00;99590;;;9.9;100.0
68320;BME280;55168;51.120;17.024;2023-05-16T03:58:00;99590;;;9.9;100.0
68320;BME280;55168;51.120;17.024;2023-05-16T03:59:00;99590;;;9.9;100.0
68320;BME280;55168;51.120;17.024;2023-05-16T04:00:00;99590;;;10.0;100.0
68320;BME280;55168;51.120;17.024;2023-05-16T04:01:00;99590;;;10.0;100.0
68320;BME280;55168;51.120;17.024;2023-05-16T04:02:00;99600;;;10.0;100.0
68320;BME280;55168;51.120;17.024;2023-05-16T04:03:00;99600;;;10.0;100.0
68320;BME280;55168;51.120;17.024;2023-05-16T04:04:00;99600;;;10.0;100.0
68320;BME280;55168;51.120;17.024;2023-05-16T04:05:00;99610;;;10.1;100.0
68320;BME280;55168;51.120;17.024;2023-05-16T04:06:00;99620;;;10.1;100.0
68320;BME280;55168;51.120;17.024;2023-05-16T04:07:00;99620;;;10.2;100.0
68320;BME280;55168;51.120;17.024;2023-05-16T04:08:00;99620;;;10.2;100.0
68320;BME280;55168;51.120;17.024;2023-05-16T04:09:00;99620;;;10.3;100.0
68320;BME280;55168;51.120;17.024;2023-05-16T04:10:00;99630;;;10.3;100.0
68320;BME280;55168;51.120;17.024;2023-05-16T04:11:00;99630;;;10.4;100.0
68320;BME280;55168;51.120;17.024;2023-05-16T04:12:00;99630;;;10.4;100.0
68320;BME280;55168;51.120;17.024;2023-05-16T04:13:00;99640;;;10.4;100.0
68320;BME280;55168;51.120;17.024;2023-05-16T04:14:00;99640;;;10.4;100.0
68320;BME280;55168;51.120;17.024;2023-05-16T04:15:01;99640;;;10.5;100.0
68320;BME280;55168;51.120;17.024;2023-05-16T04:16:00;99640;;;10.5;100.0
68320;BME280;55168;51.120;17.024;2023-05-16T04:17:00;99630;;;10.6;100.0
68320;BME280;55168;51.120;17.024;2023-05-16T04:18:00;99640;;;10.6;100.0
68320;BME280;55168;51.120;17.024;2023-05-16T04:19:00;99640;;;10.7;100.0
68320;BME280;55168;51.120;17.024;2023-05-16T04:20:00;99640;;;10.8;100.0
68320;BME280;55168;51.120;17.024;2023-05-16T04:21:00;99640;;;10.8;100.0
68320;BME280;55168;51.120;17.024;2023-05-16T04:22:00;99650;;;10.8;100.0
68320;BME280;55168;51.120;17.024;2023-05-16T04:23:00;99640;;;10.9;100.0
68320;BME280;55168;51.120;17.024;2023-05-16T04:24:00;99640;;;10.9;100.0
68320;BME280;55168;51.120;17.024;2023-05-16T04:25:00;99650;;;10.9;100.0
68320;BME280;55168;51.120;17.024;2023-05-16T04:26:00;99650;;;10.9;100.0
68320;BME280;55168;51.120;17.024;2023-05-16T04:27:00;99650;;;11.0;100.0
68320;BME280;55168;51.120;17.024;2023-05-16T04:28:00;99650;;;11.1;100.0
68320;BME280;55168;51.120;17.024;2023-05-16T04:29:00;99650;;;11.2;100.0
68320;BME280;55168;51.120;17.024;2023-05-16T04:30:00;99660;;;11.1;100.0
68320;BME280;55168;51.120;17.024;2023-05-16T04:31:00;99660;;;11.1;100.0
68320;BME280;55168;51.120;17.024;2023-05-16T04:32:00;99660;;;11.2;100.0
68320;BME280;55168;51.120;17.024;2023-05-16T04:33:00;99660;;;11.3;100.0
68320;BME280;55168;51.120;17.024;2023-05-16T04:34:00;99660;;;11.4;100.0
68320;BME280;55168;51.120;17.024;2023-05-16T04:35:00;99660;;;11.4;100.0
68320;BME280;55168;51.120;17.024;2023-05-16T04:36:00;99660;;;11.6;100.0
68320;BME280;55168;51.120;17.024;2023-05-16T04:37:00;99660;;;11.7;100.0
68320;BME280;55168;51.120;17.024;2023-05-16T04:38:00;99660;;;11.8;100.0
68320;BME280;55168;51.120;17.024;2023-05-16T04:39:00;99660;;;11.9;100.0
68320;BME280;55168;51.120;17.024;2023-05-16T04:40:00;99660;;;12.1;100.0
68320;BME280;55168;51.120;17.024;2023-05-16T04:41:00;99650;;;12.2;100.0
68320;BME280;55168;51.120;17.024;2023-05-16T04:42:00;99650;;;12.4;100.0
68320;BME280;55168;51.120;17.024;2023-05-16T04:43:00;99650;;;12.6;100.0
68320;BME280;55168;51.120;17.024;2023-05-16T04:44:01;99640;;;12.7;100.0
68320;BME280;55168;51.120;17.024;2023-05-16T04:45:00;99640;;;12.7;100.0
68320;BME280;55168;51.120;17.024;2023-05-16T04:46:00;99630;;;12.8;100.0
68320;BME280;55168;51.120;17.024;2023-05-16T04:47:00;99620;;;12.7;100.0
68320;BME280;55168;51.120;17.024;2023-05-16T04:48:00;99610;;;12.9;100.0
68320;BME280;55168;51.120;17.024;2023-05-16T04:49:00;99610;;;13.0;100.0
68320;BME280;55168;51.120;17.024;2023-05-16T04:50:00;99600;;;13.2;100.0
68320;BME280;55168;51.120;17.024;2023-05-16T04:51:00;99600;;;13.5;100.0
68320;BME280;55168;51.120;17.024;2023-05-16T04:52:00;99600;;;13.6;100.0
68320;BME280;55168;51.120;17.024;2023-05-16T04:53:00;99600;;;13.7;100.0
68320;BME280;55168;51.120;17.024;2023-05-16T04:54:00;99600;;;13.9;100.0
68320;BME280;55168;51.120;17.024;2023-05-16T04:55:00;99600;;;14.0;100.0
68320;BME280;55168;51.120;17.024;2023-05-16T04:56:00;99600;;;14.2;100.0
68320;BME280;55168;51.120;17.024;2023-05-16T04:57:00;99610;;;14.4;100.0
68320;BME280;55168;51.120;17.024;2023-05-16T04:58:00;99610;;;14.6;100.0
68320;BME280;55168;51.120;17.024;2023-05-16T04:59:00;99610;;;14.7;100.0
68320;BME280;55168;51.120;17.024;2023-05-16T05:00:00;99610;;;14.9;100.0
68320;BME280;55168;51.120;17.024;2023-05-16T05:01:00;99620;;;15.0;100.0
68320;BME280;55168;51.120;17.024;2023-05-16T05:02:00;99620;;;15.1;100.0
68320;BME280;55168;51.120;17.024;2023-05-16T05:03:00;99620;;;15.3;100.0
68320;BME280;55168;51.120;17.024;2023-05-16T05:04:00;99620;;;15.2;100.0
68320;BME280;55168;51.120;17.024;2023-05-16T05:05:00;99630;;;15.3;100.0
68320;BME280;55168;51.120;17.024;2023-05-16T05:06:00;99630;;;15.6;100.0
68320;BME280;55168;51.120;17.024;2023-05-16T05:07:00;99630;;;15.7;100.0
68320;BME280;55168;51.120;17.024;2023-05-16T05:08:00;99630;;;15.9;100.0
68320;BME280;55168;51.120;17.024;2023-05-16T05:09:00;99630;;;15.8;100.0
68320;BME280;55168;51.120;17.024;2023-05-16T05:10:00;99630;;;15.5;100.0
68320;BME280;55168;51.120;17.024;2023-05-16T05:11:00;99630;;;15.8;100.0
68320;BME280;55168;51.120;17.024;2023-05-16T05:12:00;99630;;;16.0;100.0
68320;BME280;55168;51.120;17.024;2023-05-16T05:13:00;99630;;;16.0;100.0
68320;BME280;55168;51.120;17.024;2023-05-16T05:14:00;99640;;;15.8;100.0
68320;BME280;55168;51.120;17.024;2023-05-16T05:15:00;99640;;;15.8;100.0
68320;BME280;55168;51.120;17.024;2023-05-16T05:16:00;99640;;;15.6;100.0
68320;BME280;55168;51.120;17.024;2023-05-16T05:17:00;99650;;;15.8;100.0
68320;BME280;55168;51.120;17.024;2023-05-16T05:18:00;99650;;;16.1;100.0
68320;BME280;55168;51.120;17.024;2023-05-16T05:19:00;99650;;;16.3;100.0
68320;BME280;55168;51.120;17.024;2023-05-16T05:20:00;99660;;;16.4;100.0
68320;BME280;55168;51.120;17.024;2023-05-16T05:21:00;99660;;;16.7;100.0
68320;BME280;55168;51.120;17.024;2023-05-16T05:22:00;99660;;;17.0;100.0
68320;BME280;55168;51.120;17.024;2023-05-16T05:23:00;99660;;;17.0;100.0
68320;BME280;55168;51.120;17.024;2023-05-16T05:24:00;99660;;;17.2;100.0
68320;BME280;55168;51.120;17.024;2023-05-16T05:25:00;99670;;;17.3;100.0
68320;BME280;55168;51.120;17.024;2023-05-16T05:26:00;99670;;;17.4;100.0
68320;BME280;55168;51.120;17.024;2023-05-16T05:27:00;99670;;;17.5;100.0
68320;BME280;55168;51.120;17.024;2023-05-16T05:28:00;99670;;;17.4;100.0
68320;BME280;55168;51.120;17.024;2023-05-16T05:29:00;99670;;;17.4;100.0
68320;BME280;55168;51.120;17.024;2023-05-16T05:30:01;99670;;;17.6;100.0
68320;BME280;55168;51.120;17.024;2023-05-16T05:31:00;99670;;;17.3;100.0
68320;BME280;55168;51.120;17.024;2023-05-16T05:32:00;99680;;;17.4;100.0
68320;BME280;55168;51.120;17.024;2023-05-16T05:33:00;99670;;;17.6;100.0
68320;BME280;55168;51.120;17.024;2023-05-16T05:34:00;99680;;;17.9;100.0
68320;BME280;55168;51.120;17.024;2023-05-16T05:35:00;99680;;;18.0;100.0
68320;BME280;55168;51.120;17.024;2023-05-16T05:36:00;99680;;;18.1;100.0
68320;BME280;55168;51.120;17.024;2023-05-16T05:37:00;99680;;;18.3;100.0
68320;BME280;55168;51.120;17.024;2023-05-16T05:38:00;99680;;;18.3;100.0
68320;BME280;55168;51.120;17.024;2023-05-16T05:39:00;99680;;;18.5;100.0
68320;BME280;55168;51.120;17.024;2023-05-16T05:40:00;99680;;;18.6;100.0